Time;durP1;ratioP1;P1;durP2;ratioP2;P2;SDS_P1;SDS_P2;PMS_P1;PMS_P2;Temp;Humidity;BMP_temperature;BMP_pressure;BME280_temperature;BME280_humidity;BME280_pressure;Samples;Min_cycle;Max_cycle;Signal;HPM_P1;HPM_P2
2022/06/10 05:24:07;;;;;;;;;;;;;;;;;;;;;
2022/06/10 05:31:37;;;;;;;;;;;;;;;14.16;76.43;100608.59;1087897;54;19939;-76
2022/06/10 05:32:38;;;;;;;;;;;;;;;14.24;75.88;100606.97;1087870;54;20778;-76
2022/06/10 05:35:00;;;;;;;;;;;;;;;14.38;75.37;100614.47;1088174;54;19954;-76
2022/06/10 05:36:02;;;;;;;;;;;;;;;14.41;74.79;100608.78;1088140;54;19994;-77
2022/06/10 05:37:07;;;;;;;;;;;;;;;14.47;74.90;100608.16;1087719;54;19950;-78
2022/06/10 05:38:09;;;;;;;;;;;;;;;14.53;74.91;100613.94;1087949;54;19927;-79
2022/06/10 05:39:13;;;;;;;;;;;;;;;14.56;74.94;100613.59;1088173;54;19943;-78
2022/06/10 05:40:18;;;;;;;;;;;;;;;14.64;74.66;100609.13;1088090;54;19943;-78
2022/06/10 05:42:39;;;;;;;;;;;;;;;14.71;74.19;100612.06;1088071;54;19949;-80
2022/06/10 05:43:42;;;;;;;;;;;;;;;14.78;74.40;100615.81;1087969;54;19938;-80
2022/06/10 05:44:47;;;;;;;;;;;;;;;14.82;74.28;100613.66;1087709;47;19950;-79
2022/06/10 05:45:50;;;;;;;;;;;;;;;14.86;73.88;100606.09;1087708;54;19943;-79
2022/06/10 05:46:57;;;;;;;;;;;;;;;14.95;73.88;100610.53;1087687;54;20250;-80
2022/06/10 05:48:03;;;;;;;;;;;;;;;15.00;73.60;100618.97;1087702;54;19966;-79
2022/06/10 05:49:04;;;;;;;;;;;;;;;14.97;73.23;100621.97;1088085;54;19965;-80
2022/06/10 05:50:11;;;;;;;;;;;;;;;14.99;73.52;100611.91;1088097;54;19943;-78
2022/06/10 05:51:13;;;;;;;;;;;;;;;14.99;73.58;100617.28;1088092;54;19941;-80
2022/06/10 05:52:19;;;;;;;;;;;;;;;14.99;73.33;100609.22;1090071;47;19956;-79
2022/06/10 05:53:20;;;;;;;;;;;;;;;15.02;72.99;100616.13;1090436;47;19965;-78
2022/06/10 05:54:25;;;;;;;;;;;;;;;15.03;73.10;100624.03;1087892;54;20570;-78
2022/06/10 05:55:30;;;;;;;;;;;;;;;15.06;73.07;100612.13;1088113;54;19950;-79
2022/06/10 05:56:31;;;;;;;;;;;;;;;15.11;72.63;100623.22;1088095;54;19942;-79
2022/06/10 05:57:37;;;;;;;;;;;;;;;15.10;72.73;100616.16;1090191;47;19949;-81
2022/06/10 05:58:39;;;;;;;;;;;;;;;15.12;72.42;100620.38;1088068;54;20002;-79
2022/06/10 05:59:44;;;;;;;;;;;;;;;15.16;72.74;100617.38;1088030;54;19949;-80
2022/06/10 06:00:46;;;;;;;;;;;;;;;15.11;72.29;100623.22;1088064;54;19973;-80
2022/06/10 06:01:52;;;;;;;;;;;;;;;15.01;71.82;100622.50;1088084;54;19950;-79
2022/06/10 06:02:59;;;;;;;;;;;;;;;15.03;72.06;100621.31;1089658;46;19962;-80
2022/06/10 06:04:01;;;;;;;;;;;;;;;15.01;72.36;100615.28;1089944;47;19978;-81
2022/06/10 06:05:07;;;;;;;;;;;;;;;15.08;72.60;100620.84;1087952;54;20104;-83
2022/06/10 06:06:09;;;;;;;;;;;;;;;15.05;72.38;100631.97;1088073;54;19942;-80
2022/06/10 06:07:18;;;;;;;;;;;;;;;15.05;72.61;100624.72;1088061;54;19942;-80
2022/06/10 06:08:23;;;;;;;;;;;;;;;15.05;72.61;100626.56;1087990;54;20041;-79
2022/06/10 06:09:26;;;;;;;;;;;;;;;15.17;72.76;100627.97;1087842;54;20716;-82
2022/06/10 06:10:31;;;;;;;;;;;;;;;15.22;72.03;100617.56;1087614;54;19973;-81
2022/06/10 06:11:34;;;;;;;;;;;;;;;15.16;72.46;100620.06;1089183;47;19975;-81
2022/06/10 06:12:38;;;;;;;;;;;;;;;15.12;72.25;100627.63;1088030;54;19950;-81
2022/06/10 06:13:39;;;;;;;;;;;;;;;15.18;72.13;100626.13;1088096;54;19943;-82
2022/06/10 06:14:43;;;;;;;;;;;;;;;15.19;72.01;100625.13;1088465;54;19949;-82
2022/06/10 06:15:44;;;;;;;;;;;;;;;15.25;71.80;100622.66;1088433;54;19946;-81
2022/06/10 06:16:50;;;;;;;;;;;;;;;15.14;72.00;100620.22;1088351;54;19943;-78
2022/06/10 06:17:54;;;;;;;;;;;;;;;15.11;71.83;100629.44;1090146;39;20507;-79
2022/06/10 06:18:57;;;;;;;;;;;;;;;15.26;71.63;100627.00;1088363;54;19949;-79
2022/06/10 06:20:01;;;;;;;;;;;;;;;15.29;71.42;100618.59;1088374;54;19945;-79
2022/06/10 06:21:03;;;;;;;;;;;;;;;15.34;70.80;100625.38;1088425;54;19939;-79
2022/06/10 06:22:07;;;;;;;;;;;;;;;15.39;70.33;100628.41;1088034;54;19943;-79
2022/06/10 06:23:09;;;;;;;;;;;;;;;15.43;70.39;100625.22;1087987;54;19943;-79
2022/06/10 06:24:13;;;;;;;;;;;;;;;15.46;69.42;100624.06;1088393;54;19942;-79
2022/06/10 06:25:15;;;;;;;;;;;;;;;15.35;69.87;100627.06;1088150;54;19966;-79
2022/06/10 06:26:19;;;;;;;;;;;;;;;15.33;70.01;100621.81;1088182;54;19942;-79
2022/06/10 06:27:20;;;;;;;;;;;;;;;15.40;70.23;100625.53;1088122;54;19943;-79
2022/06/10 06:28:24;;;;;;;;;;;;;;;15.47;69.81;100631.13;1087967;54;19950;-78
2022/06/10 06:29:25;;;;;;;;;;;;;;;15.49;69.39;100633.69;1088027;54;19942;-79
2022/06/10 06:30:31;;;;;;;;;;;;;;;15.61;69.43;100632.34;1088005;54;19938;-79
2022/06/10 06:31:33;;;;;;;;;;;;;;;15.68;69.46;100627.16;1087945;54;20019;-78
2022/06/10 06:32:36;;;;;;;;;;;;;;;15.75;69.40;100628.19;1088010;54;19943;-79
2022/06/10 06:33:37;;;;;;;;;;;;;;;15.65;66.59;100622.94;1088579;46;20701;-80
2022/06/10 06:34:44;;;;;;;;;;;;;;;15.73;67.42;100625.66;1087953;54;20004;-79
2022/06/10 06:35:48;;;;;;;;;;;;;;;15.85;67.29;100625.38;1089125;46;19939;-81
2022/06/10 06:36:53;;;;;;;;;;;;;;;15.81;65.97;100629.38;1087938;54;20985;-80
2022/06/10 06:37:57;;;;;;;;;;;;;;;15.94;66.83;100621.69;1088012;54;19938;-79
2022/06/10 06:38:58;;;;;;;;;;;;;;;16.03;66.23;100622.53;1087912;54;19943;-80
2022/06/10 06:40:03;;;;;;;;;;;;;;;16.09;65.84;100631.81;1088188;54;19946;-79
2022/06/10 06:41:04;;;;;;;;;;;;;;;16.06;64.97;100631.13;1088199;54;20650;-81
2022/06/10 06:42:08;;;;;;;;;;;;;;;16.04;64.62;100630.47;1088164;54;19989;-78
2022/06/10 06:43:12;;;;;;;;;;;;;;;16.10;64.60;100630.81;1088137;54;19958;-78
2022/06/10 06:44:13;;;;;;;;;;;;;;;16.17;64.60;100631.81;1088001;54;19939;-78
2022/06/10 06:45:18;;;;;;;;;;;;;;;16.30;64.69;100631.31;1088113;46;20720;-79
2022/06/10 06:46:19;;;;;;;;;;;;;;;16.42;63.84;100631.84;1089425;46;19946;-79
2022/06/10 06:47:23;;;;;;;;;;;;;;;16.46;63.91;100625.94;1087972;54;19950;-77
2022/06/10 06:48:24;;;;;;;;;;;;;;;16.55;63.26;100625.94;1088667;46;19942;-80
2022/06/10 06:49:29;;;;;;;;;;;;;;;16.65;63.86;100627.44;1087886;54;19943;-79
2022/06/10 06:50:35;;;;;;;;;;;;;;;16.68;63.34;100624.41;1091053;39;20503;-78
2022/06/10 06:51:38;;;;;;;;;;;;;;;16.73;63.61;100623.03;1087935;54;19943;-80
2022/06/10 06:52:42;;;;;;;;;;;;;;;16.87;63.70;100618.78;1087994;54;19949;-78
2022/06/10 06:53:46;;;;;;;;;;;;;;;16.92;62.86;100622.66;1087928;54;19942;-79
2022/06/10 06:54:47;;;;;;;;;;;;;;;17.00;63.12;100621.84;1087992;54;20708;-78
2022/06/10 06:55:51;;;;;;;;;;;;;;;17.05;62.52;100619.44;1088853;39;20502;-81
2022/06/10 06:56:52;;;;;;;;;;;;;;;17.10;62.67;100621.63;1087960;54;19943;-82
2022/06/10 06:57:56;;;;;;;;;;;;;;;17.11;62.01;100628.72;1087756;54;19943;-78
2022/06/10 06:58:57;;;;;;;;;;;;;;;17.15;62.63;100628.19;1087954;54;19943;-78
2022/06/10 07:00:06;;;;;;;;;;;;;;;17.20;61.66;100624.13;1087909;54;19942;-79
2022/06/10 07:01:09;;;;;;;;;;;;;;;16.95;61.98;100630.47;1087949;54;19946;-79
2022/06/10 07:02:10;;;;;;;;;;;;;;;17.11;62.07;100631.41;1087997;54;19942;-79
2022/06/10 07:03:14;;;;;;;;;;;;;;;17.09;61.79;100633.47;1087923;54;19942;-79
2022/06/10 07:04:18;;;;;;;;;;;;;;;17.03;61.97;100637.69;1087944;54;19931;-78
2022/06/10 07:05:19;;;;;;;;;;;;;;;17.12;61.14;100625.84;1087920;54;19943;-78
2022/06/10 07:06:25;;;;;;;;;;;;;;;17.34;61.32;100628.81;1088117;46;19942;-76
2022/06/10 07:07:27;;;;;;;;;;;;;;;17.39;60.94;100636.38;1088390;39;20592;-78
2022/06/10 07:08:33;;;;;;;;;;;;;;;17.37;61.04;100638.44;1087914;54;19943;-78
2022/06/10 07:09:34;;;;;;;;;;;;;;;17.48;61.02;100635.31;1087964;54;19943;-77
2022/06/10 07:10:39;;;;;;;;;;;;;;;17.50;61.14;100637.88;1087967;54;19950;-77
2022/06/10 07:11:41;;;;;;;;;;;;;;;17.49;60.60;100637.00;1087925;54;19989;-80
2022/06/10 07:12:44;;;;;;;;;;;;;;;17.51;60.98;100636.84;1087973;54;19943;-78
2022/06/10 07:13:45;;;;;;;;;;;;;;;17.55;60.83;100638.16;1088915;39;20547;-78
2022/06/10 07:14:50;;;;;;;;;;;;;;;17.72;60.94;100641.66;1087909;54;20015;-78
2022/06/10 07:15:51;;;;;;;;;;;;;;;17.91;59.88;100638.50;1087978;54;19942;-80
2022/06/10 07:16:55;;;;;;;;;;;;;;;17.85;59.86;100630.25;1087993;54;19949;-77
2022/06/10 07:17:56;;;;;;;;;;;;;;;17.58;59.48;100632.44;1088201;46;19962;-76
2022/06/10 07:19:01;;;;;;;;;;;;;;;17.66;59.66;100639.66;1087875;54;19943;-77
2022/06/10 07:20:03;;;;;;;;;;;;;;;17.84;59.64;100634.81;1087486;54;19966;-77
2022/06/10 07:21:07;;;;;;;;;;;;;;;17.80;59.51;100638.91;1087613;54;19939;-77
2022/06/10 07:22:14;;;;;;;;;;;;;;;17.84;59.36;100628.56;1087782;54;19939;-76
2022/06/10 07:23:15;;;;;;;;;;;;;;;17.64;60.02;100636.28;1087466;54;19949;-77
2022/06/10 07:24:19;;;;;;;;;;;;;;;17.68;59.99;100645.72;1087642;54;19999;-78
2022/06/10 07:25:21;;;;;;;;;;;;;;;17.91;59.78;100637.63;1087625;54;19949;-79
2022/06/10 07:26:25;;;;;;;;;;;;;;;17.93;59.46;100639.16;1087941;54;19943;-78
2022/06/10 07:27:26;;;;;;;;;;;;;;;17.77;59.29;100634.69;1087936;54;19942;-76
2022/06/10 07:28:30;;;;;;;;;;;;;;;17.80;60.01;100635.34;1087914;54;19954;-76
2022/06/10 07:29:31;;;;;;;;;;;;;;;17.84;59.79;100634.81;1088261;46;19942;-77
2022/06/10 07:30:35;;;;;;;;;;;;;;;18.05;59.60;100627.94;1087238;54;19963;-77
2022/06/10 07:31:40;;;;;;;;;;;;;;;18.22;58.83;100629.53;1087865;54;19943;-77
2022/06/10 07:32:43;;;;;;;;;;;;;;;18.13;58.59;100633.31;1087874;54;20006;-78
2022/06/10 07:33:47;;;;;;;;;;;;;;;18.21;58.86;100630.53;1089346;39;20143;-77
2022/06/10 07:34:48;;;;;;;;;;;;;;;18.30;58.46;100630.47;1087898;54;19942;-77
2022/06/10 07:35:52;;;;;;;;;;;;;;;18.13;58.98;100633.31;1087877;54;20611;-77
2022/06/10 07:36:53;;;;;;;;;;;;;;;18.33;58.75;100632.78;1089261;46;19962;-77
2022/06/10 07:38:00;;;;;;;;;;;;;;;18.47;58.79;100639.28;1087919;54;19942;-78
2022/06/10 07:39:04;;;;;;;;;;;;;;;18.74;58.15;100629.75;1087810;54;20579;-79
2022/06/10 07:40:06;;;;;;;;;;;;;;;18.93;57.69;100627.56;1088190;54;19949;-78
2022/06/10 07:42:26;;;;;;;;;;;;;;;18.99;56.65;100621.38;1093298;39;20491;-78
2022/06/10 07:43:28;;;;;;;;;;;;;;;18.83;57.03;100617.78;1088196;54;19942;-78
2022/06/10 07:44:33;;;;;;;;;;;;;;;18.61;56.84;100618.72;1088121;54;19943;-78
2022/06/10 07:45:34;;;;;;;;;;;;;;;18.64;56.86;100615.63;1088269;54;19942;-79
2022/06/10 07:46:38;;;;;;;;;;;;;;;18.94;56.51;100623.81;1088152;54;19942;-78
2022/06/10 07:47:41;;;;;;;;;;;;;;;19.17;56.20;100613.75;1088160;54;19939;-78
2022/06/10 07:48:45;;;;;;;;;;;;;;;19.22;55.20;100610.47;1088246;54;19942;-78
2022/06/10 07:49:46;;;;;;;;;;;;;;;19.27;55.17;100609.91;1093758;39;20593;-77
2022/06/10 07:50:51;;;;;;;;;;;;;;;19.34;55.66;100613.53;1087826;54;19938;-79
2022/06/10 07:51:54;;;;;;;;;;;;;;;19.54;55.41;100597.50;1088119;54;19950;-78
2022/06/10 07:52:58;;;;;;;;;;;;;;;19.72;54.97;100610.66;1088294;54;19962;-76
2022/06/10 07:54:02;;;;;;;;;;;;;;;19.88;54.77;100597.91;1088241;54;19954;-77
2022/06/10 07:55:04;;;;;;;;;;;;;;;19.97;54.98;100601.34;1088438;39;20498;-77
2022/06/10 07:56:08;;;;;;;;;;;;;;;20.12;54.60;100604.81;1088844;46;19954;-77
2022/06/10 07:57:13;;;;;;;;;;;;;;;20.21;54.00;100602.84;1088022;54;19934;-77
2022/06/10 07:58:15;;;;;;;;;;;;;;;20.34;53.54;100607.53;1088200;54;19943;-77
2022/06/10 07:59:19;;;;;;;;;;;;;;;20.24;53.24;100607.84;1092161;39;20019;-77
2022/06/10 08:00:21;;;;;;;;;;;;;;;20.20;53.18;100601.16;1088279;54;19950;-77
2022/06/10 08:01:25;;;;;;;;;;;;;;;20.06;52.81;100606.44;1088557;46;19949;-76
2022/06/10 08:02:26;;;;;;;;;;;;;;;20.07;53.10;100602.69;1088313;54;19943;-75
2022/06/10 08:03:30;;;;;;;;;;;;;;;20.30;53.19;100607.09;1088209;54;19970;-77
2022/06/10 08:04:34;;;;;;;;;;;;;;;20.38;52.33;100601.50;1088272;54;19942;-79
2022/06/10 08:05:35;;;;;;;;;;;;;;;20.23;52.26;100604.31;1088295;54;19942;-78
2022/06/10 08:06:40;;;;;;;;;;;;;;;20.17;52.87;100599.63;1088290;54;19943;-77
2022/06/10 08:07:45;;;;;;;;;;;;;;;20.03;53.14;100606.81;1088312;54;19942;-76
2022/06/10 08:08:51;;;;;;;;;;;;;;;20.16;53.04;100599.84;1088214;54;19950;-75
2022/06/10 08:09:52;;;;;;;;;;;;;;;20.14;52.62;100601.91;1088235;54;19949;-75
2022/06/10 08:10:56;;;;;;;;;;;;;;;20.22;53.05;100599.91;1088293;54;19950;-76
2022/06/10 08:12:00;;;;;;;;;;;;;;;20.40;53.14;100598.59;1087949;54;19942;-76
2022/06/10 08:13:03;;;;;;;;;;;;;;;20.29;53.07;100594.53;1088406;39;20799;-75
2022/06/10 08:14:07;;;;;;;;;;;;;;;20.62;52.22;100601.28;1088257;54;19943;-75
2022/06/10 08:15:09;;;;;;;;;;;;;;;20.57;51.40;100591.84;1090477;39;20593;-76
2022/06/10 08:16:13;;;;;;;;;;;;;;;20.59;51.30;100594.38;1088306;54;19950;-74
2022/06/10 08:17:17;;;;;;;;;;;;;;;20.60;51.01;100590.59;1088260;54;20214;-75
2022/06/10 08:18:19;;;;;;;;;;;;;;;20.71;50.53;100592.75;1088187;54;19942;-75
2022/06/10 08:19:23;;;;;;;;;;;;;;;20.83;50.89;100600.41;1088282;54;19946;-77
2022/06/10 08:22:32;;;;;;;;;;;;;;;20.76;50.54;100591.38;1088203;54;19943;-77
2022/06/10 08:23:05;;;;;;;;;;;;;;;20.70;51.01;100588.38;1088227;54;19943;-77
2022/06/10 08:24:11;;;;;;;;;;;;;;;20.52;50.89;100583.44;1088205;54;19927;-76
2022/06/10 08:25:13;;;;;;;;;;;;;;;20.27;51.72;100594.72;1088236;54;20082;-77
2022/06/10 08:26:17;;;;;;;;;;;;;;;20.59;51.64;100588.94;1088160;54;19950;-74
2022/06/10 08:27:22;;;;;;;;;;;;;;;20.72;50.53;100583.59;1088227;54;19950;-75
2022/06/10 08:28:26;;;;;;;;;;;;;;;20.35;51.26;100592.94;1087972;54;19950;-75
2022/06/10 08:29:30;;;;;;;;;;;;;;;20.31;51.80;100586.19;1087914;54;19942;-78
2022/06/10 08:30:31;;;;;;;;;;;;;;;20.70;50.86;100579.41;1087966;54;19942;-78
2022/06/10 08:31:35;;;;;;;;;;;;;;;21.01;50.65;100584.41;1087380;54;19989;-75
2022/06/10 08:32:36;;;;;;;;;;;;;;;21.28;50.28;100581.81;1088239;54;19942;-76
2022/06/10 08:33:40;;;;;;;;;;;;;;;21.57;49.13;100588.00;1088201;54;19942;-75
2022/06/10 08:34:42;;;;;;;;;;;;;;;21.64;48.62;100585.34;1090019;46;19995;-75
2022/06/10 08:35:46;;;;;;;;;;;;;;;21.49;48.42;100580.84;1088210;54;19950;-74
2022/06/10 08:36:49;;;;;;;;;;;;;;;21.78;48.72;100578.88;1088096;54;19946;-75
2022/06/10 08:37:50;;;;;;;;;;;;;;;21.40;48.43;100589.41;1088240;54;19943;-76
2022/06/10 08:38:54;;;;;;;;;;;;;;;21.07;48.81;100593.66;1088173;54;19927;-77
2022/06/10 08:40:01;;;;;;;;;;;;;;;21.43;48.93;100589.00;1088183;54;19942;-76
2022/06/10 08:41:05;;;;;;;;;;;;;;;21.57;48.36;100595.31;1088256;54;19927;-76
2022/06/10 08:42:19;;;;;;;;;;;;;;;21.75;47.43;100592.03;1088270;54;20630;-77
2022/06/10 08:43:27;;;;;;;;;;;;;;;21.82;47.21;100587.47;1088150;54;19938;-76
2022/06/10 08:44:34;;;;;;;;;;;;;;;21.71;47.18;100586.19;1088235;54;19927;-77
2022/06/10 08:45:46;;;;;;;;;;;;;;;22.10;47.53;100586.47;1089536;46;19949;-76
2022/06/10 08:47:06;;;;;;;;;;;;;;;22.05;47.12;100588.97;1087993;54;20046;-77
2022/06/10 08:48:17;;;;;;;;;;;;;;;21.93;47.64;100586.84;1088242;54;19943;-76
2022/06/10 08:49:35;;;;;;;;;;;;;;;22.42;46.91;100586.72;1088253;54;19934;-77
2022/06/10 08:50:52;;;;;;;;;;;;;;;22.26;46.64;100577.88;1088235;54;19939;-78
2022/06/10 08:51:58;;;;;;;;;;;;;;;22.47;46.57;100589.66;1088258;54;19949;-77
2022/06/10 08:53:12;;;;;;;;;;;;;;;22.15;46.91;100586.69;1088221;54;19965;-80
2022/06/10 08:54:15;;;;;;;;;;;;;;;22.61;47.04;100584.19;1088300;54;19942;-79
2022/06/10 08:55:28;;;;;;;;;;;;;;;22.31;46.25;100581.84;1089564;46;19938;-77
2022/06/10 08:56:31;;;;;;;;;;;;;;;22.19;46.43;100582.50;1088289;54;19943;-76
2022/06/10 08:57:39;;;;;;;;;;;;;;;22.42;47.10;100587.56;1088308;54;19950;-76
2022/06/10 08:58:44;;;;;;;;;;;;;;;22.19;46.61;100581.66;1088199;54;19968;-77
2022/06/10 08:59:51;;;;;;;;;;;;;;;22.41;47.01;100576.84;1088227;54;19946;-77
2022/06/10 09:00:52;;;;;;;;;;;;;;;22.78;46.48;100579.94;1088304;54;19949;-77
2022/06/10 09:02:05;;;;;;;;;;;;;;;23.10;45.70;100580.09;1088070;54;19942;-79
2022/06/10 09:03:10;;;;;;;;;;;;;;;23.13;45.01;100582.41;1088008;54;20307;-79
2022/06/10 09:04:22;;;;;;;;;;;;;;;23.37;44.71;100580.00;1088328;54;19950;-79
2022/06/10 09:05:29;;;;;;;;;;;;;;;23.30;44.47;100581.94;1088808;39;20489;-78
2022/06/10 09:06:35;;;;;;;;;;;;;;;23.53;44.22;100582.22;1088324;54;19949;-79
2022/06/10 09:07:42;;;;;;;;;;;;;;;23.67;43.34;100577.53;1088278;54;19927;-77
2022/06/10 09:08:47;;;;;;;;;;;;;;;23.61;42.94;100585.78;1088112;54;19995;-76
2022/06/10 09:09:51;;;;;;;;;;;;;;;23.52;43.56;100574.28;1088127;54;19946;-79
2022/06/10 09:10:56;;;;;;;;;;;;;;;23.68;43.73;100578.41;1091896;46;19938;-79
2022/06/10 09:12:03;;;;;;;;;;;;;;;23.83;43.50;100573.47;1091160;39;20466;-79
2022/06/10 09:13:31;;;;;;;;;;;;;;;23.92;43.27;100574.03;1090666;46;19946;-78
2022/06/10 09:14:32;;;;;;;;;;;;;;;23.61;42.64;100574.88;1088306;54;19965;-78
2022/06/10 09:15:37;;;;;;;;;;;;;;;23.67;43.46;100572.06;1089035;47;19994;-78
2022/06/10 09:16:43;;;;;;;;;;;;;;;23.64;43.03;100572.53;1088299;54;19994;-76
2022/06/10 09:17:51;;;;;;;;;;;;;;;23.68;43.10;100575.66;1088335;54;19943;-78
2022/06/10 09:19:00;;;;;;;;;;;;;;;23.72;43.08;100576.06;1087957;54;19943;-77
2022/06/10 09:20:08;;;;;;;;;;;;;;;23.69;42.75;100574.63;1088092;54;19946;-80
2022/06/10 09:21:14;;;;;;;;;;;;;;;23.63;43.27;100578.19;1088140;54;19966;-78
2022/06/10 09:22:23;;;;;;;;;;;;;;;23.84;42.90;100569.66;1088186;47;19994;-76
2022/06/10 09:23:29;;;;;;;;;;;;;;;23.89;42.95;100576.38;1087801;54;20194;-80
2022/06/10 09:24:36;;;;;;;;;;;;;;;24.00;42.86;100567.50;1088456;39;20230;-78
2022/06/10 09:25:43;;;;;;;;;;;;;;;24.23;42.05;100572.34;1088061;54;19934;-77
2022/06/10 09:26:52;;;;;;;;;;;;;;;24.16;41.63;100568.03;1088036;47;19939;-77
2022/06/10 09:27:57;;;;;;;;;;;;;;;23.76;41.80;100575.41;1087813;54;19943;-79
2022/06/10 09:29:01;;;;;;;;;;;;;;;23.33;42.78;100581.50;1091846;39;20705;-78
2022/06/10 09:30:06;;;;;;;;;;;;;;;23.92;42.11;100573.19;1087847;54;19943;-78
2022/06/10 09:31:12;;;;;;;;;;;;;;;23.92;41.94;100575.91;1087970;47;19942;-77
2022/06/10 09:32:21;;;;;;;;;;;;;;;23.87;41.89;100581.22;1087485;54;19942;-79
2022/06/10 09:33:29;;;;;;;;;;;;;;;24.02;41.67;100580.94;1087849;54;19939;-81
2022/06/10 09:34:39;;;;;;;;;;;;;;;23.89;41.92;100574.47;1087841;54;19931;-82
2022/06/10 09:35:45;;;;;;;;;;;;;;;23.60;41.79;100578.66;1088790;47;19981;-79
2022/06/10 09:36:53;;;;;;;;;;;;;;;23.32;42.27;100574.38;1087959;54;19942;-79
2022/06/10 09:37:56;;;;;;;;;;;;;;;23.24;42.37;100583.63;1087926;54;19935;-81
2022/06/10 09:39:04;;;;;;;;;;;;;;;23.50;42.19;100576.38;1087768;54;19946;-82
2022/06/10 09:41:33;;;;;;;;;;;;;;;23.75;41.67;100573.72;1088228;54;19957;-80
2022/06/10 09:42:45;;;;;;;;;;;;;;;23.88;41.04;100570.06;1088250;54;19943;-81
2022/06/10 09:44:04;;;;;;;;;;;;;;;23.87;40.85;100578.47;1088198;54;19942;-80
2022/06/10 09:45:09;;;;;;;;;;;;;;;24.28;40.74;100567.06;1088126;54;19965;-77
2022/06/10 09:46:23;;;;;;;;;;;;;;;24.65;40.04;100566.31;1088206;54;19942;-82
2022/06/10 09:47:33;;;;;;;;;;;;;;;24.96;40.01;100564.53;1088926;47;20516;-79
2022/06/10 09:48:45;;;;;;;;;;;;;;;25.03;39.17;100567.19;1091503;39;20451;-80
2022/06/10 09:50:05;;;;;;;;;;;;;;;25.05;39.50;100567.81;1090643;46;19927;-77
2022/06/10 09:51:12;;;;;;;;;;;;;;;24.84;38.60;100564.47;1088436;54;19942;-77
2022/06/10 09:52:19;;;;;;;;;;;;;;;25.03;37.79;100565.28;1088517;54;19966;-78
2022/06/10 09:53:37;;;;;;;;;;;;;;;25.25;37.10;100573.03;1088535;54;19939;-76
2022/06/10 09:54:54;;;;;;;;;;;;;;;24.68;36.91;100565.88;1095037;31;20617;-80
2022/06/10 09:56:06;;;;;;;;;;;;;;;24.38;38.01;100563.81;1088154;54;19943;-77
2022/06/10 09:57:22;;;;;;;;;;;;;;;24.31;37.71;100560.31;1088455;54;19950;-76
2022/06/10 09:58:44;;;;;;;;;;;;;;;23.95;37.72;100565.41;1088170;54;19942;-78
2022/06/10 10:52:44;;;;;;;;;;;;;;;26.18;35.21;100533.63;1070907;54;20866;31
2022/06/10 10:58:09;;;;;;;;;;;;;;;26.52;34.52;100518.25;1075693;54;20705;-87
2022/06/10 11:00:32;;;;;;;;;;;;;;;26.60;34.87;100514.31;1084745;46;19978;-85
2022/06/10 11:02:51;;;;;;;;;;;;;;;25.92;35.13;100520.09;1070558;54;19934;31
2022/06/10 11:05:22;;;;;;;;;;;;;;;26.43;34.78;100519.69;1071302;54;19946;31
2022/06/10 11:08:33;;;;;;;;;;;;;;;26.63;34.68;100524.78;1070387;54;19947;31
2022/06/10 11:09:48;;;;;;;;;;;;;;;26.79;34.90;100512.28;1071871;39;21301;31
2022/06/10 11:11:55;;;;;;;;;;;;;;;26.58;33.72;100517.28;1070619;54;20745;31
2022/06/10 11:14:22;;;;;;;;;;;;;;;26.35;34.12;100520.06;1078364;54;21950;31
2022/06/10 11:16:40;;;;;;;;;;;;;;;26.52;34.50;100523.75;1108140;39;20925;31
2022/06/10 11:18:48;;;;;;;;;;;;;;;26.59;33.76;100518.16;1089172;54;19927;-89
2022/06/10 11:20:58;;;;;;;;;;;;;;;25.91;34.35;100510.22;1088567;54;19989;-93
2022/06/10 11:22:15;;;;;;;;;;;;;;;25.78;34.82;100508.53;1070668;54;20776;31
2022/06/10 11:24:27;;;;;;;;;;;;;;;25.98;34.61;100508.19;1070604;54;21346;31
2022/06/10 11:29:01;;;;;;;;;;;;;;;25.30;35.27;100513.00;1070232;54;20344;31
2022/06/10 11:30:09;;;;;;;;;;;;;;;24.96;35.73;100511.75;1070599;54;19944;31
2022/06/10 11:31:20;;;;;;;;;;;;;;;24.87;36.12;100503.88;1070889;54;19976;31
2022/06/10 11:32:25;;;;;;;;;;;;;;;24.83;36.01;100501.81;1070747;54;19947;31
2022/06/10 11:35:44;;;;;;;;;;;;;;;24.82;35.70;100500.16;1070590;54;19961;31
2022/06/10 11:37:58;;;;;;;;;;;;;;;24.61;36.15;100505.78;1089414;46;20294;31
2022/06/10 11:40:05;;;;;;;;;;;;;;;24.94;35.76;100506.50;1072033;39;21363;31
2022/06/10 11:41:24;;;;;;;;;;;;;;;24.98;35.54;100501.44;1071220;54;19930;31
2022/06/10 11:43:33;;;;;;;;;;;;;;;25.18;35.32;100499.25;1070592;54;21053;31
2022/06/10 11:44:46;;;;;;;;;;;;;;;25.11;34.84;100503.16;1074576;54;20447;31
2022/06/10 11:46:54;;;;;;;;;;;;;;;24.65;35.52;100498.00;1070721;54;20795;31
2022/06/10 11:48:04;;;;;;;;;;;;;;;24.79;35.53;100490.50;1071126;54;19951;31
2022/06/10 11:50:16;;;;;;;;;;;;;;;24.92;35.12;100484.88;1088491;54;19958;-89
2022/06/10 11:54:36;;;;;;;;;;;;;;;24.68;34.97;100489.34;1088842;54;19934;-90
2022/06/10 12:02:31;;;;;;;;;;;;;;;25.03;34.87;100475.03;1073963;54;19951;31
2022/06/10 12:03:43;;;;;;;;;;;;;;;25.11;34.69;100476.63;1069474;54;20997;31
2022/06/10 12:05:51;;;;;;;;;;;;;;;25.07;34.12;100481.72;1068542;54;20252;31
2022/06/10 12:06:58;;;;;;;;;;;;;;;25.18;34.26;100477.38;1070664;46;20182;31
2022/06/10 12:10:15;;;;;;;;;;;;;;;24.59;35.40;100469.69;1088628;54;19943;-89
2022/06/10 12:12:25;;;;;;;;;;;;;;;24.48;35.92;100464.97;1069257;54;19950;31
2022/06/10 12:17:40;;;;;;;;;;;;;;;24.73;35.25;100462.19;1068790;54;20768;31
2022/06/10 12:22:11;;;;;;;;;;;;;;;24.88;34.32;100458.22;1073883;39;21717;-82
2022/06/10 12:24:35;;;;;;;;;;;;;;;25.07;34.13;100457.13;1064843;54;19943;31
2022/06/10 12:25:46;;;;;;;;;;;;;;;24.77;34.73;100462.56;1068642;54;20754;31
2022/06/10 12:27:53;;;;;;;;;;;;;;;24.74;34.64;100465.75;1067657;54;20064;31
2022/06/10 12:29:04;;;;;;;;;;;;;;;24.60;34.77;100462.31;1069063;39;21184;31
2022/06/10 12:33:34;;;;;;;;;;;;;;;24.68;34.78;100456.56;1069406;54;20002;31
2022/06/10 12:38:27;;;;;;;;;;;;;;;24.84;34.70;100454.28;1068309;54;20009;31
2022/06/10 12:39:40;;;;;;;;;;;;;;;24.64;35.41;100449.00;1069196;54;20042;31
2022/06/10 12:40:47;;;;;;;;;;;;;;;24.63;35.76;100452.81;1072253;31;20282;31
2022/06/10 12:44:05;;;;;;;;;;;;;;;25.15;34.87;100442.28;1069361;54;19952;31
2022/06/10 12:45:14;;;;;;;;;;;;;;;25.12;34.37;100450.13;1069547;54;20693;31
2022/06/10 12:47:30;;;;;;;;;;;;;;;24.98;34.86;100444.84;1089087;54;19934;-91
2022/06/10 12:49:39;;;;;;;;;;;;;;;25.02;34.30;100440.59;1088171;54;19942;-91
2022/06/10 12:53:10;;;;;;;;;;;;;;;25.27;34.08;100441.50;1068622;54;19993;31
2022/06/10 12:56:26;;;;;;;;;;;;;;;25.11;33.88;100443.00;1089009;54;19934;-86
2022/06/10 12:58:43;;;;;;;;;;;;;;;25.12;33.33;100440.00;1069022;54;21300;31
2022/06/10 12:59:49;;;;;;;;;;;;;;;25.12;34.12;100439.19;1086253;46;19958;31
2022/06/10 13:03:20;;;;;;;;;;;;;;;25.30;34.50;100441.88;1067917;54;21099;31
2022/06/10 13:04:42;;;;;;;;;;;;;;;25.27;34.63;100439.59;1068512;54;20855;31
2022/06/10 13:06:49;;;;;;;;;;;;;;;25.22;35.00;100439.47;1068288;54;19986;31
2022/06/10 13:09:18;;;;;;;;;;;;;;;25.00;34.60;100437.25;1067974;54;19946;31
2022/06/10 13:10:46;;;;;;;;;;;;;;;25.03;34.91;100441.41;1068472;54;20825;31
2022/06/10 13:13:58;;;;;;;;;;;;;;;25.06;34.18;100421.81;1068539;54;20849;31
2022/06/10 13:15:18;;;;;;;;;;;;;;;25.08;34.16;100428.72;1068680;54;19947;31
2022/06/10 13:17:27;;;;;;;;;;;;;;;25.12;34.66;100428.25;1089017;54;19927;-87
2022/06/10 13:19:36;;;;;;;;;;;;;;;25.23;34.02;100431.03;1068158;54;20358;31
2022/06/10 13:22:46;;;;;;;;;;;;;;;25.42;34.25;100416.44;1069720;54;19954;31
2022/06/10 13:24:03;;;;;;;;;;;;;;;25.51;34.39;100415.91;1069574;54;20966;31
2022/06/10 13:30:39;;;;;;;;;;;;;;;25.69;33.34;100414.94;1068679;54;21521;31
2022/06/10 13:31:48;;;;;;;;;;;;;;;25.50;33.43;100416.13;1087914;46;20747;31
2022/06/10 13:33:59;;;;;;;;;;;;;;;25.19;33.70;100413.38;1089332;54;19953;-88
2022/06/10 13:37:10;;;;;;;;;;;;;;;24.84;34.07;100410.53;1068176;54;20809;31
2022/06/10 13:38:15;;;;;;;;;;;;;;;24.93;33.49;100414.63;1072271;54;19942;31